sensor_id;sensor_type;location;lat;lon;timestamp;P1;durP1;ratioP1;P2;durP2;ratioP2
7233;SDS011;3658;47.992;10.158;2022-09-03T00:02:01;1.37;;;1.27;;
7233;SDS011;3658;47.992;10.158;2022-09-03T00:04:38;1.20;;;1.10;;
7233;SDS011;3658;47.992;10.158;2022-09-03T00:07:14;1.23;;;1.10;;
7233;SDS011;3658;47.992;10.158;2022-09-03T00:09:45;1.20;;;1.10;;
7233;SDS011;3658;47.992;10.158;2022-09-03T00:12:17;1.10;;;1.00;;
7233;SDS011;3658;47.992;10.158;2022-09-03T00:14:49;1.33;;;1.23;;
7233;SDS011;3658;47.992;10.158;2022-09-03T00:17:21;1.20;;;1.03;;
7233;SDS011;3658;47.992;10.158;2022-09-03T00:19:54;1.30;;;1.20;;
7233;SDS011;3658;47.992;10.158;2022-09-03T00:22:24;1.30;;;1.20;;
7233;SDS011;3658;47.992;10.158;2022-09-03T00:24:55;1.17;;;1.07;;
7233;SDS011;3658;47.992;10.158;2022-09-03T00:27:24;1.30;;;1.20;;
7233;SDS011;3658;47.992;10.158;2022-09-03T00:29:54;1.20;;;1.10;;
7233;SDS011;3658;47.992;10.158;2022-09-03T00:32:28;1.20;;;1.10;;
7233;SDS011;3658;47.992;10.158;2022-09-03T00:35:08;1.33;;;1.23;;
7233;SDS011;3658;47.992;10.158;2022-09-03T00:37:42;1.77;;;1.13;;
7233;SDS011;3658;47.992;10.158;2022-09-03T00:40:09;1.60;;;1.10;;
7233;SDS011;3658;47.992;10.158;2022-09-03T00:43:01;1.20;;;1.10;;
7233;SDS011;3658;47.992;10.158;2022-09-03T00:45:38;1.20;;;1.10;;
7233;SDS011;3658;47.992;10.158;2022-09-03T00:48:16;1.37;;;1.17;;
7233;SDS011;3658;47.992;10.158;2022-09-03T00:50:52;1.07;;;1.00;;
7233;SDS011;3658;47.992;10.158;2022-09-03T00:53:42;1.07;;;1.00;;
7233;SDS011;3658;47.992;10.158;2022-09-03T00:56:19;1.17;;;0.93;;
7233;SDS011;3658;47.992;10.158;2022-09-03T00:59:00;2.13;;;1.50;;
7233;SDS011;3658;47.992;10.158;2022-09-03T01:01:33;0.90;;;0.90;;
7233;SDS011;3658;47.992;10.158;2022-09-03T01:04:07;1.23;;;1.13;;
7233;SDS011;3658;47.992;10.158;2022-09-03T01:06:54;1.20;;;1.10;;
7233;SDS011;3658;47.992;10.158;2022-09-03T01:09:34;1.13;;;1.00;;
7233;SDS011;3658;47.992;10.158;2022-09-03T01:12:14;1.00;;;1.00;;
7233;SDS011;3658;47.992;10.158;2022-09-03T01:14:55;1.00;;;1.00;;
7233;SDS011;3658;47.992;10.158;2022-09-03T01:17:31;0.80;;;0.80;;
7233;SDS011;3658;47.992;10.158;2022-09-03T01:20:13;1.10;;;1.00;;
7233;SDS011;3658;47.992;10.158;2022-09-03T01:22:56;1.03;;;1.00;;
7233;SDS011;3658;47.992;10.158;2022-09-03T01:26:01;1.10;;;1.00;;
7233;SDS011;3658;47.992;10.158;2022-09-03T01:28:46;0.97;;;0.97;;
7233;SDS011;3658;47.992;10.158;2022-09-03T01:31:22;1.00;;;1.00;;
7233;SDS011;3658;47.992;10.158;2022-09-03T01:33:56;0.87;;;0.87;;
7233;SDS011;3658;47.992;10.158;2022-09-03T01:36:32;1.20;;;1.10;;
7233;SDS011;3658;47.992;10.158;2022-09-03T01:39:10;1.17;;;1.07;;
7233;SDS011;3658;47.992;10.158;2022-09-03T01:41:45;1.00;;;1.00;;
7233;SDS011;3658;47.992;10.158;2022-09-03T01:44:40;1.10;;;1.00;;
7233;SDS011;3658;47.992;10.158;2022-09-03T01:47:25;0.97;;;0.97;;
7233;SDS011;3658;47.992;10.158;2022-09-03T01:50:03;0.80;;;0.80;;
7233;SDS011;3658;47.992;10.158;2022-09-03T01:52:38;1.20;;;1.10;;
7233;SDS011;3658;47.992;10.158;2022-09-03T01:55:17;1.20;;;1.10;;
7233;SDS011;3658;47.992;10.158;2022-09-03T01:57:55;0.80;;;0.80;;
7233;SDS011;3658;47.992;10.158;2022-09-03T02:00:27;0.90;;;0.90;;
7233;SDS011;3658;47.992;10.158;2022-09-03T02:02:59;1.07;;;1.00;;
7233;SDS011;3658;47.992;10.158;2022-09-03T02:05:31;1.33;;;0.90;;
7233;SDS011;3658;47.992;10.158;2022-09-03T02:08:00;1.13;;;1.10;;
7233;SDS011;3658;47.992;10.158;2022-09-03T02:10:30;1.10;;;1.00;;
7233;SDS011;3658;47.992;10.158;2022-09-03T02:13:04;1.00;;;1.00;;
7233;SDS011;3658;47.992;10.158;2022-09-03T02:15:37;0.93;;;0.93;;
7233;SDS011;3658;47.992;10.158;2022-09-03T02:18:10;0.93;;;0.93;;
7233;SDS011;3658;47.992;10.158;2022-09-03T02:20:42;0.90;;;0.90;;
7233;SDS011;3658;47.992;10.158;2022-09-03T02:23:09;1.03;;;0.93;;
7233;SDS011;3658;47.992;10.158;2022-09-03T02:25:37;0.93;;;0.93;;
7233;SDS011;3658;47.992;10.158;2022-09-03T02:28:07;0.83;;;0.83;;
7233;SDS011;3658;47.992;10.158;2022-09-03T02:30:36;0.90;;;0.90;;
7233;SDS011;3658;47.992;10.158;2022-09-03T02:33:03;1.10;;;1.00;;
7233;SDS011;3658;47.992;10.158;2022-09-03T02:35:30;0.83;;;0.83;;
7233;SDS011;3658;47.992;10.158;2022-09-03T02:38:07;0.80;;;0.80;;
7233;SDS011;3658;47.992;10.158;2022-09-03T02:40:35;0.93;;;0.93;;
7233;SDS011;3658;47.992;10.158;2022-09-03T02:43:03;0.80;;;0.80;;
7233;SDS011;3658;47.992;10.158;2022-09-03T02:45:34;0.90;;;0.90;;
7233;SDS011;3658;47.992;10.158;2022-09-03T02:48:08;0.90;;;0.90;;
7233;SDS011;3658;47.992;10.158;2022-09-03T02:50:39;0.93;;;0.93;;
7233;SDS011;3658;47.992;10.158;2022-09-03T02:53:06;0.80;;;0.80;;
7233;SDS011;3658;47.992;10.158;2022-09-03T02:55:33;0.73;;;0.73;;
7233;SDS011;3658;47.992;10.158;2022-09-03T02:58:01;0.90;;;0.90;;
7233;SDS011;3658;47.992;10.158;2022-09-03T03:00:30;0.90;;;0.90;;
7233;SDS011;3658;47.992;10.158;2022-09-03T03:02:58;0.83;;;0.83;;
7233;SDS011;3658;47.992;10.158;2022-09-03T03:05:26;0.90;;;0.90;;
7233;SDS011;3658;47.992;10.158;2022-09-03T03:08:01;0.90;;;0.90;;
7233;SDS011;3658;47.992;10.158;2022-09-03T03:10:28;1.10;;;1.00;;
7233;SDS011;3658;47.992;10.158;2022-09-03T03:12:55;0.87;;;0.87;;
7233;SDS011;3658;47.992;10.158;2022-09-03T03:15:22;0.80;;;0.80;;
7233;SDS011;3658;47.992;10.158;2022-09-03T03:17:49;0.90;;;0.90;;
7233;SDS011;3658;47.992;10.158;2022-09-03T03:20:17;0.80;;;0.80;;
7233;SDS011;3658;47.992;10.158;2022-09-03T03:22:44;0.90;;;0.90;;
7233;SDS011;3658;47.992;10.158;2022-09-03T03:25:12;0.80;;;0.80;;
7233;SDS011;3658;47.992;10.158;2022-09-03T03:27:39;0.87;;;0.87;;
7233;SDS011;3658;47.992;10.158;2022-09-03T03:30:06;0.93;;;0.93;;
7233;SDS011;3658;47.992;10.158;2022-09-03T03:32:35;0.80;;;0.80;;
7233;SDS011;3658;47.992;10.158;2022-09-03T03:35:02;0.90;;;0.90;;
7233;SDS011;3658;47.992;10.158;2022-09-03T03:37:33;0.70;;;0.70;;
7233;SDS011;3658;47.992;10.158;2022-09-03T03:40:00;0.80;;;0.80;;
7233;SDS011;3658;47.992;10.158;2022-09-03T03:42:28;0.80;;;0.80;;
7233;SDS011;3658;47.992;10.158;2022-09-03T03:44:57;0.80;;;0.80;;
7233;SDS011;3658;47.992;10.158;2022-09-03T03:47:26;0.73;;;0.73;;
7233;SDS011;3658;47.992;10.158;2022-09-03T03:49:55;0.80;;;0.80;;
7233;SDS011;3658;47.992;10.158;2022-09-03T03:52:22;0.80;;;0.80;;
7233;SDS011;3658;47.992;10.158;2022-09-03T03:54:50;0.80;;;0.80;;
7233;SDS011;3658;47.992;10.158;2022-09-03T03:57:18;0.90;;;0.90;;
7233;SDS011;3658;47.992;10.158;2022-09-03T03:59:47;0.90;;;0.90;;
7233;SDS011;3658;47.992;10.158;2022-09-03T04:02:14;0.93;;;0.93;;
7233;SDS011;3658;47.992;10.158;2022-09-03T04:04:42;0.90;;;0.90;;
7233;SDS011;3658;47.992;10.158;2022-09-03T04:07:09;0.80;;;0.80;;
7233;SDS011;3658;47.992;10.158;2022-09-03T04:09:36;0.80;;;0.80;;
7233;SDS011;3658;47.992;10.158;2022-09-03T04:12:05;0.80;;;0.80;;
7233;SDS011;3658;47.992;10.158;2022-09-03T04:14:33;0.90;;;0.90;;
7233;SDS011;3658;47.992;10.158;2022-09-03T04:17:00;0.80;;;0.80;;
7233;SDS011;3658;47.992;10.158;2022-09-03T04:19:28;0.80;;;0.80;;
7233;SDS011;3658;47.992;10.158;2022-09-03T04:21:55;0.90;;;0.90;;
7233;SDS011;3658;47.992;10.158;2022-09-03T04:24:22;1.00;;;1.00;;
7233;SDS011;3658;47.992;10.158;2022-09-03T04:26:49;0.90;;;0.90;;
7233;SDS011;3658;47.992;10.158;2022-09-03T04:29:19;0.80;;;0.80;;
7233;SDS011;3658;47.992;10.158;2022-09-03T04:31:47;0.80;;;0.80;;
7233;SDS011;3658;47.992;10.158;2022-09-03T04:34:27;0.90;;;0.90;;
7233;SDS011;3658;47.992;10.158;2022-09-03T04:36:54;0.80;;;0.80;;
7233;SDS011;3658;47.992;10.158;2022-09-03T04:39:23;0.80;;;0.60;;
7233;SDS011;3658;47.992;10.158;2022-09-03T04:41:50;0.80;;;0.80;;
7233;SDS011;3658;47.992;10.158;2022-09-03T04:44:17;0.70;;;0.70;;
7233;SDS011;3658;47.992;10.158;2022-09-03T04:46:46;0.70;;;0.70;;
7233;SDS011;3658;47.992;10.158;2022-09-03T04:49:13;0.80;;;0.80;;
7233;SDS011;3658;47.992;10.158;2022-09-03T04:51:40;0.90;;;0.90;;
7233;SDS011;3658;47.992;10.158;2022-09-03T04:54:08;0.70;;;0.70;;
7233;SDS011;3658;47.992;10.158;2022-09-03T04:56:37;0.80;;;0.80;;
7233;SDS011;3658;47.992;10.158;2022-09-03T04:59:05;0.90;;;0.90;;
7233;SDS011;3658;47.992;10.158;2022-09-03T05:01:35;0.83;;;0.83;;
7233;SDS011;3658;47.992;10.158;2022-09-03T05:04:04;1.00;;;1.00;;
7233;SDS011;3658;47.992;10.158;2022-09-03T05:06:32;0.87;;;0.87;;
7233;SDS011;3658;47.992;10.158;2022-09-03T05:09:01;0.70;;;0.70;;
7233;SDS011;3658;47.992;10.158;2022-09-03T05:11:29;0.90;;;0.90;;
7233;SDS011;3658;47.992;10.158;2022-09-03T05:13:56;0.87;;;0.87;;
7233;SDS011;3658;47.992;10.158;2022-09-03T05:16:25;0.80;;;0.80;;
7233;SDS011;3658;47.992;10.158;2022-09-03T05:18:56;0.80;;;0.80;;
7233;SDS011;3658;47.992;10.158;2022-09-03T05:21:25;0.90;;;0.90;;
7233;SDS011;3658;47.992;10.158;2022-09-03T05:23:53;0.83;;;0.83;;
7233;SDS011;3658;47.992;10.158;2022-09-03T05:26:21;1.20;;;0.80;;
7233;SDS011;3658;47.992;10.158;2022-09-03T05:28:52;0.90;;;0.90;;
7233;SDS011;3658;47.992;10.158;2022-09-03T05:31:20;0.80;;;0.80;;
7233;SDS011;3658;47.992;10.158;2022-09-03T05:33:50;0.80;;;0.80;;
7233;SDS011;3658;47.992;10.158;2022-09-03T05:36:21;0.80;;;0.80;;
7233;SDS011;3658;47.992;10.158;2022-09-03T05:38:49;0.80;;;0.80;;
7233;SDS011;3658;47.992;10.158;2022-09-03T05:41:18;0.90;;;0.90;;
7233;SDS011;3658;47.992;10.158;2022-09-03T05:43:46;0.80;;;0.80;;
7233;SDS011;3658;47.992;10.158;2022-09-03T05:46:15;0.87;;;0.87;;
7233;SDS011;3658;47.992;10.158;2022-09-03T05:48:43;0.80;;;0.80;;
7233;SDS011;3658;47.992;10.158;2022-09-03T05:51:11;0.80;;;0.80;;
7233;SDS011;3658;47.992;10.158;2022-09-03T05:53:42;0.70;;;0.70;;
7233;SDS011;3658;47.992;10.158;2022-09-03T05:56:11;0.80;;;0.80;;
7233;SDS011;3658;47.992;10.158;2022-09-03T05:58:42;0.60;;;0.60;;
7233;SDS011;3658;47.992;10.158;2022-09-03T06:01:10;0.70;;;0.70;;
7233;SDS011;3658;47.992;10.158;2022-09-03T06:03:39;0.90;;;0.90;;
7233;SDS011;3658;47.992;10.158;2022-09-03T06:06:06;0.80;;;0.80;;
7233;SDS011;3658;47.992;10.158;2022-09-03T06:08:34;0.80;;;0.80;;
7233;SDS011;3658;47.992;10.158;2022-09-03T06:11:04;0.83;;;0.83;;
7233;SDS011;3658;47.992;10.158;2022-09-03T06:13:32;5.33;;;1.63;;
7233;SDS011;3658;47.992;10.158;2022-09-03T06:16:00;5.53;;;1.43;;
7233;SDS011;3658;47.992;10.158;2022-09-03T06:18:28;2.50;;;1.50;;
7233;SDS011;3658;47.992;10.158;2022-09-03T06:20:56;4.40;;;1.30;;
7233;SDS011;3658;47.992;10.158;2022-09-03T06:23:25;4.07;;;1.50;;
7233;SDS011;3658;47.992;10.158;2022-09-03T06:25:59;3.20;;;1.50;;
7233;SDS011;3658;47.992;10.158;2022-09-03T06:28:29;8.37;;;1.63;;
7233;SDS011;3658;47.992;10.158;2022-09-03T06:30:56;5.57;;;1.70;;
7233;SDS011;3658;47.992;10.158;2022-09-03T06:33:24;5.53;;;1.67;;
7233;SDS011;3658;47.992;10.158;2022-09-03T06:35:52;3.93;;;1.60;;
7233;SDS011;3658;47.992;10.158;2022-09-03T06:38:22;9.57;;;1.63;;
7233;SDS011;3658;47.992;10.158;2022-09-03T06:40:50;2.33;;;1.30;;
7233;SDS011;3658;47.992;10.158;2022-09-03T06:43:18;2.03;;;1.80;;
7233;SDS011;3658;47.992;10.158;2022-09-03T06:45:53;2.00;;;1.57;;
7233;SDS011;3658;47.992;10.158;2022-09-03T06:48:21;2.50;;;1.53;;
7233;SDS011;3658;47.992;10.158;2022-09-03T06:50:55;3.43;;;1.70;;
7233;SDS011;3658;47.992;10.158;2022-09-03T06:53:23;2.23;;;1.53;;
7233;SDS011;3658;47.992;10.158;2022-09-03T06:55:54;3.10;;;1.57;;
7233;SDS011;3658;47.992;10.158;2022-09-03T06:58:22;1.50;;;1.40;;
7233;SDS011;3658;47.992;10.158;2022-09-03T07:00:49;4.17;;;1.60;;
7233;SDS011;3658;47.992;10.158;2022-09-03T07:03:19;2.70;;;1.43;;
7233;SDS011;3658;47.992;10.158;2022-09-03T07:05:46;3.07;;;1.50;;
7233;SDS011;3658;47.992;10.158;2022-09-03T07:08:13;1.77;;;1.57;;
7233;SDS011;3658;47.992;10.158;2022-09-03T07:10:44;9.07;;;2.03;;
7233;SDS011;3658;47.992;10.158;2022-09-03T07:13:13;5.60;;;1.60;;
7233;SDS011;3658;47.992;10.158;2022-09-03T07:15:40;3.30;;;1.90;;
7233;SDS011;3658;47.992;10.158;2022-09-03T07:18:07;2.80;;;1.50;;
7233;SDS011;3658;47.992;10.158;2022-09-03T07:20:35;2.60;;;1.77;;
7233;SDS011;3658;47.992;10.158;2022-09-03T07:23:02;4.20;;;2.30;;
7233;SDS011;3658;47.992;10.158;2022-09-03T07:25:32;3.20;;;1.60;;
7233;SDS011;3658;47.992;10.158;2022-09-03T07:28:01;2.27;;;1.60;;
7233;SDS011;3658;47.992;10.158;2022-09-03T07:30:30;3.00;;;1.60;;
7233;SDS011;3658;47.992;10.158;2022-09-03T07:32:57;2.30;;;1.40;;
7233;SDS011;3658;47.992;10.158;2022-09-03T07:35:28;3.10;;;1.97;;
7233;SDS011;3658;47.992;10.158;2022-09-03T07:37:56;2.77;;;1.53;;
7233;SDS011;3658;47.992;10.158;2022-09-03T07:40:23;5.07;;;2.73;;
7233;SDS011;3658;47.992;10.158;2022-09-03T07:42:55;2.43;;;1.60;;
7233;SDS011;3658;47.992;10.158;2022-09-03T07:45:23;4.13;;;1.60;;
7233;SDS011;3658;47.992;10.158;2022-09-03T07:47:50;2.30;;;1.67;;
7233;SDS011;3658;47.992;10.158;2022-09-03T07:50:17;2.03;;;1.60;;
7233;SDS011;3658;47.992;10.158;2022-09-03T07:52:44;1.60;;;1.50;;
7233;SDS011;3658;47.992;10.158;2022-09-03T07:55:13;4.00;;;1.40;;
7233;SDS011;3658;47.992;10.158;2022-09-03T07:57:40;1.70;;;1.60;;
7233;SDS011;3658;47.992;10.158;2022-09-03T08:00:08;1.93;;;1.60;;
7233;SDS011;3658;47.992;10.158;2022-09-03T08:02:37;2.03;;;1.80;;
7233;SDS011;3658;47.992;10.158;2022-09-03T08:05:04;3.53;;;1.70;;
7233;SDS011;3658;47.992;10.158;2022-09-03T08:07:32;2.80;;;1.50;;
7233;SDS011;3658;47.992;10.158;2022-09-03T08:09:59;2.20;;;1.60;;
7233;SDS011;3658;47.992;10.158;2022-09-03T08:12:28;1.87;;;1.30;;
7233;SDS011;3658;47.992;10.158;2022-09-03T08:14:56;4.60;;;1.60;;
7233;SDS011;3658;47.992;10.158;2022-09-03T08:17:23;3.10;;;1.53;;
7233;SDS011;3658;47.992;10.158;2022-09-03T08:19:50;3.07;;;1.37;;
7233;SDS011;3658;47.992;10.158;2022-09-03T08:22:18;2.83;;;1.67;;
7233;SDS011;3658;47.992;10.158;2022-09-03T08:24:46;2.23;;;1.43;;
7233;SDS011;3658;47.992;10.158;2022-09-03T08:27:19;2.10;;;1.40;;
7233;SDS011;3658;47.992;10.158;2022-09-03T08:29:50;3.50;;;1.50;;
7233;SDS011;3658;47.992;10.158;2022-09-03T08:32:17;4.73;;;1.87;;
7233;SDS011;3658;47.992;10.158;2022-09-03T08:34:44;4.97;;;2.20;;
7233;SDS011;3658;47.992;10.158;2022-09-03T08:37:11;2.47;;;2.27;;
7233;SDS011;3658;47.992;10.158;2022-09-03T08:39:38;3.17;;;2.50;;
7233;SDS011;3658;47.992;10.158;2022-09-03T08:42:12;3.10;;;2.80;;
7233;SDS011;3658;47.992;10.158;2022-09-03T08:44:48;2.70;;;2.50;;
7233;SDS011;3658;47.992;10.158;2022-09-03T08:47:21;3.20;;;2.90;;
7233;SDS011;3658;47.992;10.158;2022-09-03T08:49:53;3.30;;;2.83;;
7233;SDS011;3658;47.992;10.158;2022-09-03T08:52:24;3.97;;;2.60;;
7233;SDS011;3658;47.992;10.158;2022-09-03T08:54:58;2.90;;;2.57;;
7233;SDS011;3658;47.992;10.158;2022-09-03T08:57:35;3.87;;;2.80;;
7233;SDS011;3658;47.992;10.158;2022-09-03T09:00:10;4.67;;;2.80;;
7233;SDS011;3658;47.992;10.158;2022-09-03T09:02:40;2.67;;;2.27;;
7233;SDS011;3658;47.992;10.158;2022-09-03T09:05:33;8.67;;;2.50;;
7233;SDS011;3658;47.992;10.158;2022-09-03T09:08:11;4.10;;;2.40;;
7233;SDS011;3658;47.992;10.158;2022-09-03T09:10:46;5.47;;;2.50;;
7233;SDS011;3658;47.992;10.158;2022-09-03T09:13:21;6.87;;;2.50;;
7233;SDS011;3658;47.992;10.158;2022-09-03T09:15:58;2.37;;;2.10;;
7233;SDS011;3658;47.992;10.158;2022-09-03T09:18:34;6.63;;;2.80;;
7233;SDS011;3658;47.992;10.158;2022-09-03T09:21:11;3.90;;;2.20;;
7233;SDS011;3658;47.992;10.158;2022-09-03T09:23:42;4.53;;;2.03;;
7233;SDS011;3658;47.992;10.158;2022-09-03T09:26:12;3.83;;;2.30;;
7233;SDS011;3658;47.992;10.158;2022-09-03T09:28:42;4.10;;;2.40;;
7233;SDS011;3658;47.992;10.158;2022-09-03T09:31:14;2.57;;;2.37;;
7233;SDS011;3658;47.992;10.158;2022-09-03T09:33:43;2.80;;;1.97;;
7233;SDS011;3658;47.992;10.158;2022-09-03T09:36:10;2.83;;;1.93;;
7233;SDS011;3658;47.992;10.158;2022-09-03T09:38:41;3.20;;;2.17;;
7233;SDS011;3658;47.992;10.158;2022-09-03T09:41:10;2.90;;;1.93;;
7233;SDS011;3658;47.992;10.158;2022-09-03T09:43:38;2.37;;;2.10;;
7233;SDS011;3658;47.992;10.158;2022-09-03T09:46:06;4.10;;;2.77;;
7233;SDS011;3658;47.992;10.158;2022-09-03T09:48:41;2.10;;;1.90;;
7233;SDS011;3658;47.992;10.158;2022-09-03T09:51:19;5.90;;;2.07;;
7233;SDS011;3658;47.992;10.158;2022-09-03T09:53:58;6.20;;;2.30;;
7233;SDS011;3658;47.992;10.158;2022-09-03T09:56:26;6.70;;;2.07;;
7233;SDS011;3658;47.992;10.158;2022-09-03T09:59:00;4.67;;;1.87;;
7233;SDS011;3658;47.992;10.158;2022-09-03T10:01:28;3.83;;;1.93;;
7233;SDS011;3658;47.992;10.158;2022-09-03T10:03:57;6.87;;;2.27;;
7233;SDS011;3658;47.992;10.158;2022-09-03T10:06:26;2.10;;;1.90;;
7233;SDS011;3658;47.992;10.158;2022-09-03T10:09:14;3.20;;;2.40;;
7233;SDS011;3658;47.992;10.158;2022-09-03T10:11:43;1.90;;;1.80;;
7233;SDS011;3658;47.992;10.158;2022-09-03T10:14:16;2.20;;;1.90;;
7233;SDS011;3658;47.992;10.158;2022-09-03T10:16:49;3.50;;;2.10;;
7233;SDS011;3658;47.992;10.158;2022-09-03T10:19:27;3.37;;;2.07;;
7233;SDS011;3658;47.992;10.158;2022-09-03T10:22:00;4.30;;;2.73;;
7233;SDS011;3658;47.992;10.158;2022-09-03T10:24:38;2.77;;;1.90;;
7233;SDS011;3658;47.992;10.158;2022-09-03T10:27:13;3.47;;;2.23;;
7233;SDS011;3658;47.992;10.158;2022-09-03T10:29:42;2.77;;;2.17;;
7233;SDS011;3658;47.992;10.158;2022-09-03T10:32:22;3.53;;;2.43;;
7233;SDS011;3658;47.992;10.158;2022-09-03T10:35:02;2.37;;;2.17;;
7233;SDS011;3658;47.992;10.158;2022-09-03T10:37:37;2.50;;;2.30;;
7233;SDS011;3658;47.992;10.158;2022-09-03T10:40:10;2.60;;;2.30;;
7233;SDS011;3658;47.992;10.158;2022-09-03T10:42:46;2.40;;;2.20;;
7233;SDS011;3658;47.992;10.158;2022-09-03T10:45:22;2.97;;;2.13;;
7233;SDS011;3658;47.992;10.158;2022-09-03T10:51:05;2.60;;;2.27;;
7233;SDS011;3658;47.992;10.158;2022-09-03T10:53:45;2.23;;;2.00;;
7233;SDS011;3658;47.992;10.158;2022-09-03T10:56:21;2.23;;;1.80;;
7233;SDS011;3658;47.992;10.158;2022-09-03T10:59:00;2.37;;;2.07;;
7233;SDS011;3658;47.992;10.158;2022-09-03T11:01:39;2.60;;;2.07;;
7233;SDS011;3658;47.992;10.158;2022-09-03T11:04:17;2.97;;;2.03;;
7233;SDS011;3658;47.992;10.158;2022-09-03T11:06:52;2.80;;;1.97;;
7233;SDS011;3658;47.992;10.158;2022-09-03T11:09:23;2.30;;;2.10;;
7233;SDS011;3658;47.992;10.158;2022-09-03T11:11:55;1.90;;;1.80;;
7233;SDS011;3658;47.992;10.158;2022-09-03T11:14:28;2.20;;;2.00;;
7233;SDS011;3658;47.992;10.158;2022-09-03T11:17:02;2.13;;;1.70;;
7233;SDS011;3658;47.992;10.158;2022-09-03T11:19:33;2.27;;;2.03;;
7233;SDS011;3658;47.992;10.158;2022-09-03T11:22:08;1.70;;;1.60;;
7233;SDS011;3658;47.992;10.158;2022-09-03T11:24:37;1.53;;;1.40;;
7233;SDS011;3658;47.992;10.158;2022-09-03T11:27:10;2.07;;;1.87;;
7233;SDS011;3658;47.992;10.158;2022-09-03T11:29:48;1.73;;;1.63;;
7233;SDS011;3658;47.992;10.158;2022-09-03T11:32:19;1.70;;;1.60;;
7233;SDS011;3658;47.992;10.158;2022-09-03T11:34:50;2.10;;;1.90;;
7233;SDS011;3658;47.992;10.158;2022-09-03T11:37:21;1.87;;;1.77;;
7233;SDS011;3658;47.992;10.158;2022-09-03T11:40:02;3.23;;;1.93;;
7233;SDS011;3658;47.992;10.158;2022-09-03T11:42:33;1.87;;;1.70;;
7233;SDS011;3658;47.992;10.158;2022-09-03T11:45:21;1.60;;;1.50;;
7233;SDS011;3658;47.992;10.158;2022-09-03T11:47:59;1.70;;;1.60;;
7233;SDS011;3658;47.992;10.158;2022-09-03T11:50:27;1.70;;;1.60;;
7233;SDS011;3658;47.992;10.158;2022-09-03T11:53:07;2.43;;;1.50;;
7233;SDS011;3658;47.992;10.158;2022-09-03T11:55:47;1.60;;;1.50;;
7233;SDS011;3658;47.992;10.158;2022-09-03T11:58:21;1.73;;;1.43;;
7233;SDS011;3658;47.992;10.158;2022-09-03T12:00:51;2.20;;;2.00;;
7233;SDS011;3658;47.992;10.158;2022-09-03T12:03:22;6.53;;;2.17;;
7233;SDS011;3658;47.992;10.158;2022-09-03T12:06:00;2.67;;;2.23;;
7233;SDS011;3658;47.992;10.158;2022-09-03T12:08:48;2.30;;;1.67;;
7233;SDS011;3658;47.992;10.158;2022-09-03T12:11:41;3.70;;;2.37;;
7233;SDS011;3658;47.992;10.158;2022-09-03T12:14:19;2.43;;;2.20;;
7233;SDS011;3658;47.992;10.158;2022-09-03T12:19:46;3.97;;;2.00;;
7233;SDS011;3658;47.992;10.158;2022-09-03T12:22:17;3.27;;;2.20;;
7233;SDS011;3658;47.992;10.158;2022-09-03T12:24:48;2.67;;;1.70;;
7233;SDS011;3658;47.992;10.158;2022-09-03T12:27:17;2.73;;;1.83;;
7233;SDS011;3658;47.992;10.158;2022-09-03T12:29:52;2.00;;;1.60;;
7233;SDS011;3658;47.992;10.158;2022-09-03T12:32:22;3.03;;;1.70;;
7233;SDS011;3658;47.992;10.158;2022-09-03T12:34:50;3.20;;;2.13;;
7233;SDS011;3658;47.992;10.158;2022-09-03T12:37:18;6.63;;;1.70;;
7233;SDS011;3658;47.992;10.158;2022-09-03T12:39:53;2.13;;;1.70;;
7233;SDS011;3658;47.992;10.158;2022-09-03T12:42:25;2.10;;;1.83;;
7233;SDS011;3658;47.992;10.158;2022-09-03T12:44:53;1.90;;;1.53;;
7233;SDS011;3658;47.992;10.158;2022-09-03T12:47:21;4.03;;;1.97;;
7233;SDS011;3658;47.992;10.158;2022-09-03T12:49:49;2.53;;;1.90;;
7233;SDS011;3658;47.992;10.158;2022-09-03T12:52:19;8.97;;;2.20;;
7233;SDS011;3658;47.992;10.158;2022-09-03T12:54:51;3.40;;;1.73;;
7233;SDS011;3658;47.992;10.158;2022-09-03T12:57:23;3.80;;;1.90;;
7233;SDS011;3658;47.992;10.158;2022-09-03T12:59:55;4.10;;;2.10;;
7233;SDS011;3658;47.992;10.158;2022-09-03T13:02:26;2.63;;;1.70;;
7233;SDS011;3658;47.992;10.158;2022-09-03T13:05:00;4.50;;;1.67;;
7233;SDS011;3658;47.992;10.158;2022-09-03T13:07:28;5.40;;;2.10;;
7233;SDS011;3658;47.992;10.158;2022-09-03T13:10:03;5.20;;;1.67;;
7233;SDS011;3658;47.992;10.158;2022-09-03T13:12:33;3.17;;;2.00;;
7233;SDS011;3658;47.992;10.158;2022-09-03T13:15:16;2.60;;;1.70;;
7233;SDS011;3658;47.992;10.158;2022-09-03T13:18:07;5.73;;;1.53;;
7233;SDS011;3658;47.992;10.158;2022-09-03T13:20:46;2.50;;;1.80;;
7233;SDS011;3658;47.992;10.158;2022-09-03T13:23:31;3.20;;;1.70;;
7233;SDS011;3658;47.992;10.158;2022-09-03T13:26:12;2.40;;;1.90;;
7233;SDS011;3658;47.992;10.158;2022-09-03T13:28:53;2.53;;;1.77;;
7233;SDS011;3658;47.992;10.158;2022-09-03T13:31:37;5.73;;;1.50;;
7233;SDS011;3658;47.992;10.158;2022-09-03T13:34:12;5.03;;;1.97;;
7233;SDS011;3658;47.992;10.158;2022-09-03T13:36:46;4.10;;;1.70;;
7233;SDS011;3658;47.992;10.158;2022-09-03T13:39:20;6.73;;;1.60;;
7233;SDS011;3658;47.992;10.158;2022-09-03T13:41:55;4.93;;;1.93;;
7233;SDS011;3658;47.992;10.158;2022-09-03T13:44:33;2.30;;;1.60;;
7233;SDS011;3658;47.992;10.158;2022-09-03T13:47:08;2.63;;;1.80;;
7233;SDS011;3658;47.992;10.158;2022-09-03T13:49:41;3.37;;;1.70;;
7233;SDS011;3658;47.992;10.158;2022-09-03T13:52:37;4.60;;;1.77;;
7233;SDS011;3658;47.992;10.158;2022-09-03T13:55:08;3.33;;;1.70;;
7233;SDS011;3658;47.992;10.158;2022-09-03T13:57:46;7.67;;;2.70;;
7233;SDS011;3658;47.992;10.158;2022-09-03T14:00:23;8.27;;;1.97;;
7233;SDS011;3658;47.992;10.158;2022-09-03T14:02:56;3.33;;;1.87;;
7233;SDS011;3658;47.992;10.158;2022-09-03T14:05:34;6.30;;;1.90;;
7233;SDS011;3658;47.992;10.158;2022-09-03T14:08:12;4.33;;;1.93;;
7233;SDS011;3658;47.992;10.158;2022-09-03T14:10:53;7.77;;;2.20;;
7233;SDS011;3658;47.992;10.158;2022-09-03T14:13:29;11.50;;;2.50;;
7233;SDS011;3658;47.992;10.158;2022-09-03T14:16:09;5.57;;;1.70;;
7233;SDS011;3658;47.992;10.158;2022-09-03T14:18:44;5.63;;;2.03;;
7233;SDS011;3658;47.992;10.158;2022-09-03T14:21:20;2.80;;;1.70;;
7233;SDS011;3658;47.992;10.158;2022-09-03T14:23:53;5.10;;;2.40;;
7233;SDS011;3658;47.992;10.158;2022-09-03T14:26:26;5.83;;;1.70;;
7233;SDS011;3658;47.992;10.158;2022-09-03T14:28:58;4.47;;;1.47;;
7233;SDS011;3658;47.992;10.158;2022-09-03T14:31:31;3.27;;;1.43;;
7233;SDS011;3658;47.992;10.158;2022-09-03T14:34:17;1.77;;;1.60;;
7233;SDS011;3658;47.992;10.158;2022-09-03T14:36:57;5.53;;;1.50;;
7233;SDS011;3658;47.992;10.158;2022-09-03T14:39:30;4.17;;;1.80;;
7233;SDS011;3658;47.992;10.158;2022-09-03T14:44:59;11.53;;;1.83;;
7233;SDS011;3658;47.992;10.158;2022-09-03T14:47:46;3.03;;;1.67;;
7233;SDS011;3658;47.992;10.158;2022-09-03T14:50:27;3.13;;;1.53;;
7233;SDS011;3658;47.992;10.158;2022-09-03T14:53:10;3.00;;;1.50;;
7233;SDS011;3658;47.992;10.158;2022-09-03T14:58:53;7.03;;;1.60;;
7233;SDS011;3658;47.992;10.158;2022-09-03T15:01:33;2.73;;;1.60;;
7233;SDS011;3658;47.992;10.158;2022-09-03T15:04:11;3.43;;;1.80;;
7233;SDS011;3658;47.992;10.158;2022-09-03T15:09:57;2.57;;;1.73;;
7233;SDS011;3658;47.992;10.158;2022-09-03T15:12:33;4.00;;;1.63;;
7233;SDS011;3658;47.992;10.158;2022-09-03T15:15:04;4.03;;;1.30;;
7233;SDS011;3658;47.992;10.158;2022-09-03T15:20:35;1.40;;;1.30;;
7233;SDS011;3658;47.992;10.158;2022-09-03T15:23:22;1.83;;;1.60;;
7233;SDS011;3658;47.992;10.158;2022-09-03T15:26:18;2.83;;;1.63;;
7233;SDS011;3658;47.992;10.158;2022-09-03T15:29:03;1.90;;;1.60;;
7233;SDS011;3658;47.992;10.158;2022-09-03T15:31:44;1.50;;;1.30;;
7233;SDS011;3658;47.992;10.158;2022-09-03T15:34:34;3.67;;;1.83;;
7233;SDS011;3658;47.992;10.158;2022-09-03T15:37:16;3.00;;;1.47;;
7233;SDS011;3658;47.992;10.158;2022-09-03T15:39:56;3.30;;;1.50;;
7233;SDS011;3658;47.992;10.158;2022-09-03T15:42:26;2.10;;;1.40;;
7233;SDS011;3658;47.992;10.158;2022-09-03T15:44:55;2.10;;;1.47;;
7233;SDS011;3658;47.992;10.158;2022-09-03T15:47:31;1.80;;;1.57;;
7233;SDS011;3658;47.992;10.158;2022-09-03T15:50:07;1.93;;;1.33;;
7233;SDS011;3658;47.992;10.158;2022-09-03T15:52:46;3.23;;;1.40;;